sensor_id;sensor_type;location;lat;lon;timestamp;pressure;altitude;pressure_sealevel;temperature;humidity
31092;BME280;17747;51.070;10.930;2022-12-18T16:34:45;102533.81;;;-6.88;82.19
31092;BME280;17747;51.070;10.930;2022-12-18T16:36:17;102533.41;;;-6.83;81.41
31092;BME280;17747;51.070;10.930;2022-12-18T16:37:48;102537.97;;;-6.78;81.00
31092;BME280;17747;51.070;10.930;2022-12-18T16:39:20;102525.66;;;-6.94;80.82
31092;BME280;17747;51.070;10.930;2022-12-18T16:40:51;102526.66;;;-6.92;80.78
31092;BME280;17747;51.070;10.930;2022-12-18T16:42:40;102526.00;;;-6.78;80.45
31092;BME280;17747;51.070;10.930;2022-12-18T16:44:12;102535.41;;;-6.78;80.25
31092;BME280;17747;51.070;10.930;2022-12-18T16:45:44;102533.31;;;-6.49;80.02
31092;BME280;17747;51.070;10.930;2022-12-18T16:47:15;102528.22;;;-6.94;79.82
31092;BME280;17747;51.070;10.930;2022-12-18T16:48:47;102541.03;;;-7.06;80.51
31092;BME280;17747;51.070;10.930;2022-12-18T16:50:19;102534.78;;;-6.98;80.53
31092;BME280;17747;51.070;10.930;2022-12-18T16:51:51;102540.59;;;-7.00;80.61
31092;BME280;17747;51.070;10.930;2022-12-18T16:53:22;102542.34;;;-6.66;80.02
31092;BME280;17747;51.070;10.930;2022-12-18T16:54:53;102541.53;;;-6.76;79.81
31092;BME280;17747;51.070;10.930;2022-12-18T16:56:25;102549.91;;;-6.91;79.52
31092;BME280;17747;51.070;10.930;2022-12-18T16:57:56;102554.25;;;-6.90;80.03
31092;BME280;17747;51.070;10.930;2022-12-18T16:59:28;102548.56;;;-6.86;79.94
31092;BME280;17747;51.070;10.930;2022-12-18T17:00:59;102539.72;;;-6.89;80.21
31092;BME280;17747;51.070;10.930;2022-12-18T17:02:30;102544.66;;;-6.92;79.69
31092;BME280;17747;51.070;10.930;2022-12-18T17:04:02;102541.81;;;-7.07;80.16
31092;BME280;17747;51.070;10.930;2022-12-18T17:05:36;102534.69;;;-6.99;80.20
31092;BME280;17747;51.070;10.930;2022-12-18T17:07:07;102532.44;;;-7.06;80.28
31092;BME280;17747;51.070;10.930;2022-12-18T17:08:39;102539.03;;;-6.98;80.12
31092;BME280;17747;51.070;10.930;2022-12-18T17:10:10;102528.53;;;-7.01;80.36
31092;BME280;17747;51.070;10.930;2022-12-18T17:11:42;102527.09;;;-6.98;79.98
31092;BME280;17747;51.070;10.930;2022-12-18T17:13:14;102515.34;;;-7.06;79.75
31092;BME280;17747;51.070;10.930;2022-12-18T17:14:45;102507.66;;;-7.06;80.02
31092;BME280;17747;51.070;10.930;2022-12-18T17:16:16;102510.22;;;-7.06;80.32
31092;BME280;17747;51.070;10.930;2022-12-18T17:17:48;102511.91;;;-7.06;80.16
31092;BME280;17747;51.070;10.930;2022-12-18T17:19:20;102513.13;;;-7.01;80.02
31092;BME280;17747;51.070;10.930;2022-12-18T17:20:54;102511.56;;;-6.99;80.11
31092;BME280;17747;51.070;10.930;2022-12-18T17:22:28;102517.72;;;-6.86;79.91
31092;BME280;17747;51.070;10.930;2022-12-18T17:24:00;102509.16;;;-6.63;79.78
31092;BME280;17747;51.070;10.930;2022-12-18T17:25:31;102510.91;;;-6.85;79.48
31092;BME280;17747;51.070;10.930;2022-12-18T17:27:02;102508.56;;;-6.94;79.50
31092;BME280;17747;51.070;10.930;2022-12-18T17:28:34;102501.78;;;-6.82;79.55
31092;BME280;17747;51.070;10.930;2022-12-18T17:30:06;102507.25;;;-6.77;79.31
31092;BME280;17747;51.070;10.930;2022-12-18T17:31:37;102506.91;;;-6.70;78.62
31092;BME280;17747;51.070;10.930;2022-12-18T17:33:09;102506.22;;;-6.91;79.10
31092;BME280;17747;51.070;10.930;2022-12-18T17:34:40;102505.09;;;-6.94;79.09
31092;BME280;17747;51.070;10.930;2022-12-18T17:36:13;102497.50;;;-6.93;79.29
31092;BME280;17747;51.070;10.930;2022-12-18T17:37:45;102498.50;;;-6.91;79.22
31092;BME280;17747;51.070;10.930;2022-12-18T17:39:18;102509.81;;;-6.77;79.21
31092;BME280;17747;51.070;10.930;2022-12-18T17:40:50;102496.84;;;-6.78;78.83
31092;BME280;17747;51.070;10.930;2022-12-18T17:42:21;102500.78;;;-6.72;78.63
31092;BME280;17747;51.070;10.930;2022-12-18T17:43:53;102494.41;;;-6.54;78.27
31092;BME280;17747;51.070;10.930;2022-12-18T17:45:24;102490.59;;;-6.82;78.28
31092;BME280;17747;51.070;10.930;2022-12-18T17:46:56;102489.13;;;-6.90;78.62
31092;BME280;17747;51.070;10.930;2022-12-18T17:48:27;102476.94;;;-6.93;79.21
31092;BME280;17747;51.070;10.930;2022-12-18T17:49:59;102483.78;;;-6.93;79.01
31092;BME280;17747;51.070;10.930;2022-12-18T17:51:32;102477.88;;;-6.57;78.55
31092;BME280;17747;51.070;10.930;2022-12-18T17:53:03;102487.03;;;-6.72;78.40
31092;BME280;17747;51.070;10.930;2022-12-18T17:54:34;102492.81;;;-6.75;78.36
31092;BME280;17747;51.070;10.930;2022-12-18T17:56:08;102500.00;;;-6.59;78.26
31092;BME280;17747;51.070;10.930;2022-12-18T17:57:41;102492.28;;;-6.59;77.90
31092;BME280;17747;51.070;10.930;2022-12-18T17:59:13;102481.44;;;-6.78;78.09
31092;BME280;17747;51.070;10.930;2022-12-18T18:00:44;102480.53;;;-6.79;78.03
31092;BME280;17747;51.070;10.930;2022-12-18T18:02:15;102480.13;;;-6.73;78.15
31092;BME280;17747;51.070;10.930;2022-12-18T18:03:47;102481.66;;;-6.64;78.17
31092;BME280;17747;51.070;10.930;2022-12-18T18:05:19;102487.03;;;-6.84;78.29
31092;BME280;17747;51.070;10.930;2022-12-18T18:06:51;102483.91;;;-6.68;78.43
31092;BME280;17747;51.070;10.930;2022-12-18T18:08:23;102479.22;;;-6.62;78.36
31092;BME280;17747;51.070;10.930;2022-12-18T18:09:55;102479.34;;;-6.61;77.99
31092;BME280;17747;51.070;10.930;2022-12-18T18:11:26;102478.66;;;-6.58;78.35
31092;BME280;17747;51.070;10.930;2022-12-18T18:13:16;102470.47;;;-6.64;78.26
31092;BME280;17747;51.070;10.930;2022-12-18T18:15:06;102466.47;;;-6.84;78.37
31092;BME280;17747;51.070;10.930;2022-12-18T18:16:38;102459.97;;;-6.79;78.25
31092;BME280;17747;51.070;10.930;2022-12-18T18:18:10;102465.44;;;-6.63;77.98
31092;BME280;17747;51.070;10.930;2022-12-18T18:19:41;102464.13;;;-6.69;77.88
31092;BME280;17747;51.070;10.930;2022-12-18T18:21:13;102458.97;;;-6.58;77.78
31092;BME280;17747;51.070;10.930;2022-12-18T18:22:46;102457.72;;;-6.63;77.96
31092;BME280;17747;51.070;10.930;2022-12-18T18:24:18;102448.47;;;-6.37;77.33
31092;BME280;17747;51.070;10.930;2022-12-18T18:25:52;102443.53;;;-6.34;77.05
31092;BME280;17747;51.070;10.930;2022-12-18T18:27:23;102440.41;;;-6.42;77.02
31092;BME280;17747;51.070;10.930;2022-12-18T18:28:55;102447.50;;;-6.03;76.47
31092;BME280;17747;51.070;10.930;2022-12-18T18:30:27;102447.19;;;-6.31;76.71
31092;BME280;17747;51.070;10.930;2022-12-18T18:31:59;102443.53;;;-6.34;76.66
31092;BME280;17747;51.070;10.930;2022-12-18T18:33:31;102444.13;;;-6.62;77.10
31092;BME280;17747;51.070;10.930;2022-12-18T18:35:02;102434.28;;;-6.67;77.00
31092;BME280;17747;51.070;10.930;2022-12-18T18:36:34;102437.16;;;-6.63;77.28
31092;BME280;17747;51.070;10.930;2022-12-18T18:38:07;102433.16;;;-6.83;78.37
31092;BME280;17747;51.070;10.930;2022-12-18T18:39:38;102432.03;;;-6.74;78.04
31092;BME280;17747;51.070;10.930;2022-12-18T18:41:10;102430.91;;;-6.66;77.58
31092;BME280;17747;51.070;10.930;2022-12-18T18:42:40;102428.56;;;-6.75;77.68
31092;BME280;17747;51.070;10.930;2022-12-18T18:44:12;102427.03;;;-6.61;77.47
31092;BME280;17747;51.070;10.930;2022-12-18T18:45:46;102422.19;;;-6.57;77.49
31092;BME280;17747;51.070;10.930;2022-12-18T18:47:18;102419.31;;;-6.73;77.44
31092;BME280;17747;51.070;10.930;2022-12-18T18:48:50;102414.59;;;-6.78;77.54
31092;BME280;17747;51.070;10.930;2022-12-18T18:50:21;102422.88;;;-6.47;77.23
31092;BME280;17747;51.070;10.930;2022-12-18T18:51:53;102424.19;;;-6.53;76.94
31092;BME280;17747;51.070;10.930;2022-12-18T18:53:26;102411.34;;;-6.53;76.97
31092;BME280;17747;51.070;10.930;2022-12-18T18:54:58;102408.75;;;-6.41;77.29
31092;BME280;17747;51.070;10.930;2022-12-18T18:56:29;102406.34;;;-6.51;76.82
31092;BME280;17747;51.070;10.930;2022-12-18T18:58:01;102411.53;;;-6.26;76.42
31092;BME280;17747;51.070;10.930;2022-12-18T18:59:32;102410.31;;;-6.43;76.97
31092;BME280;17747;51.070;10.930;2022-12-18T19:01:04;102421.97;;;-6.36;76.35
31092;BME280;17747;51.070;10.930;2022-12-18T19:02:36;102417.06;;;-6.57;76.81
31092;BME280;17747;51.070;10.930;2022-12-18T19:04:08;102417.50;;;-6.39;76.61
31092;BME280;17747;51.070;10.930;2022-12-18T19:05:39;102418.69;;;-6.34;76.62
31092;BME280;17747;51.070;10.930;2022-12-18T19:07:11;102421.00;;;-6.13;75.95
31092;BME280;17747;51.070;10.930;2022-12-18T19:08:44;102398.47;;;-6.53;76.22
31092;BME280;17747;51.070;10.930;2022-12-18T19:10:16;102394.34;;;-6.39;76.51
31092;BME280;17747;51.070;10.930;2022-12-18T19:11:47;102397.19;;;-6.59;76.52
31092;BME280;17747;51.070;10.930;2022-12-18T19:13:36;102394.03;;;-6.55;76.67
31092;BME280;17747;51.070;10.930;2022-12-18T19:15:07;102398.47;;;-6.53;76.62
31092;BME280;17747;51.070;10.930;2022-12-18T19:16:38;102398.88;;;-6.71;76.82
31092;BME280;17747;51.070;10.930;2022-12-18T19:18:10;102394.63;;;-6.71;77.36
31092;BME280;17747;51.070;10.930;2022-12-18T19:19:42;102391.03;;;-6.61;77.43
31092;BME280;17747;51.070;10.930;2022-12-18T19:21:13;102395.59;;;-6.57;76.97
31092;BME280;17747;51.070;10.930;2022-12-18T19:22:44;102382.41;;;-6.50;76.43
31092;BME280;17747;51.070;10.930;2022-12-18T19:24:17;102382.16;;;-6.53;76.73
31092;BME280;17747;51.070;10.930;2022-12-18T19:25:48;102376.50;;;-6.61;76.79
31092;BME280;17747;51.070;10.930;2022-12-18T19:27:20;102371.88;;;-6.53;76.67
31092;BME280;17747;51.070;10.930;2022-12-18T19:28:51;102370.06;;;-6.42;76.24
31092;BME280;17747;51.070;10.930;2022-12-18T19:30:23;102375.63;;;-6.73;76.90
31092;BME280;17747;51.070;10.930;2022-12-18T19:31:54;102374.06;;;-6.71;76.83
31092;BME280;17747;51.070;10.930;2022-12-18T19:33:27;102368.13;;;-6.70;76.91
31092;BME280;17747;51.070;10.930;2022-12-18T19:34:58;102370.56;;;-6.60;76.67
31092;BME280;17747;51.070;10.930;2022-12-18T19:36:30;102363.97;;;-6.56;76.84
31092;BME280;17747;51.070;10.930;2022-12-18T19:38:02;102362.44;;;-6.77;76.91
31092;BME280;17747;51.070;10.930;2022-12-18T19:39:34;102365.69;;;-6.80;77.02
31092;BME280;17747;51.070;10.930;2022-12-18T19:41:06;102360.50;;;-6.57;77.10
31092;BME280;17747;51.070;10.930;2022-12-18T19:42:38;102354.38;;;-6.70;76.62
31092;BME280;17747;51.070;10.930;2022-12-18T19:44:09;102364.56;;;-6.72;76.95
31092;BME280;17747;51.070;10.930;2022-12-18T19:45:42;102358.75;;;-6.81;77.14
31092;BME280;17747;51.070;10.930;2022-12-18T19:47:13;102363.13;;;-6.92;77.34
31092;BME280;17747;51.070;10.930;2022-12-18T19:48:45;102357.63;;;-6.73;77.58
31092;BME280;17747;51.070;10.930;2022-12-18T19:50:16;102353.47;;;-6.59;77.17
31092;BME280;17747;51.070;10.930;2022-12-18T19:51:48;102352.88;;;-6.43;76.38
31092;BME280;17747;51.070;10.930;2022-12-18T19:53:19;102346.69;;;-6.70;76.25
31092;BME280;17747;51.070;10.930;2022-12-18T19:54:52;102339.66;;;-6.73;76.70
31092;BME280;17747;51.070;10.930;2022-12-18T19:56:24;102348.13;;;-6.62;76.77
31092;BME280;17747;51.070;10.930;2022-12-18T19:57:56;102348.03;;;-6.87;77.00
31092;BME280;17747;51.070;10.930;2022-12-18T19:59:27;102334.38;;;-6.74;76.93
31092;BME280;17747;51.070;10.930;2022-12-18T20:00:58;102335.94;;;-6.76;76.77
31092;BME280;17747;51.070;10.930;2022-12-18T20:02:30;102341.31;;;-6.73;76.89
31092;BME280;17747;51.070;10.930;2022-12-18T20:04:05;102343.22;;;-6.71;76.32
31092;BME280;17747;51.070;10.930;2022-12-18T20:05:36;102339.78;;;-6.83;76.72
31092;BME280;17747;51.070;10.930;2022-12-18T20:07:08;102333.03;;;-6.69;76.59
31092;BME280;17747;51.070;10.930;2022-12-18T20:08:39;102332.34;;;-6.67;76.55
31092;BME280;17747;51.070;10.930;2022-12-18T20:10:12;102337.50;;;-6.78;76.26
31092;BME280;17747;51.070;10.930;2022-12-18T20:11:44;102331.22;;;-6.59;75.84
31092;BME280;17747;51.070;10.930;2022-12-18T20:13:15;102325.75;;;-6.75;76.40
31092;BME280;17747;51.070;10.930;2022-12-18T20:14:47;102325.69;;;-6.88;76.67
31092;BME280;17747;51.070;10.930;2022-12-18T20:16:18;102324.81;;;-7.00;77.23
31092;BME280;17747;51.070;10.930;2022-12-18T20:17:50;102323.91;;;-7.01;77.30
31092;BME280;17747;51.070;10.930;2022-12-18T20:19:22;102317.44;;;-6.84;77.13
31092;BME280;17747;51.070;10.930;2022-12-18T20:20:53;102320.03;;;-7.07;77.21
31092;BME280;17747;51.070;10.930;2022-12-18T20:22:25;102310.47;;;-6.85;77.13
31092;BME280;17747;51.070;10.930;2022-12-18T20:23:56;102311.50;;;-6.83;76.85
31092;BME280;17747;51.070;10.930;2022-12-18T20:25:30;102307.28;;;-6.94;76.77
31092;BME280;17747;51.070;10.930;2022-12-18T20:27:01;102315.31;;;-7.01;76.81
31092;BME280;17747;51.070;10.930;2022-12-18T20:28:34;102307.41;;;-7.04;77.39
31092;BME280;17747;51.070;10.930;2022-12-18T20:30:06;102315.19;;;-6.91;77.16
31092;BME280;17747;51.070;10.930;2022-12-18T20:31:37;102316.28;;;-6.88;76.90
31092;BME280;17747;51.070;10.930;2022-12-18T20:33:09;102317.53;;;-6.94;77.39
31092;BME280;17747;51.070;10.930;2022-12-18T20:34:40;102308.38;;;-6.91;77.24
31092;BME280;17747;51.070;10.930;2022-12-18T20:36:12;102316.31;;;-6.99;77.02
31092;BME280;17747;51.070;10.930;2022-12-18T20:37:44;102315.88;;;-7.05;77.22
31092;BME280;17747;51.070;10.930;2022-12-18T20:39:15;102311.06;;;-6.89;76.81
31092;BME280;17747;51.070;10.930;2022-12-18T20:40:48;102311.53;;;-7.06;77.03
31092;BME280;17747;51.070;10.930;2022-12-18T20:42:19;102311.53;;;-6.95;76.91
31092;BME280;17747;51.070;10.930;2022-12-18T20:43:51;102320.56;;;-7.00;76.97
31092;BME280;17747;51.070;10.930;2022-12-18T20:45:22;102313.06;;;-7.08;77.10
31092;BME280;17747;51.070;10.930;2022-12-18T20:46:55;102310.28;;;-7.00;77.35
31092;BME280;17747;51.070;10.930;2022-12-18T20:48:26;102312.94;;;-6.98;77.11
31092;BME280;17747;51.070;10.930;2022-12-18T20:49:58;102314.63;;;-6.87;76.95
31092;BME280;17747;51.070;10.930;2022-12-18T20:51:30;102309.28;;;-7.02;77.11
31092;BME280;17747;51.070;10.930;2022-12-18T20:53:02;102304.47;;;-6.97;76.50
31092;BME280;17747;51.070;10.930;2022-12-18T20:54:33;102302.50;;;-6.65;76.54
31092;BME280;17747;51.070;10.930;2022-12-18T20:56:07;102297.75;;;-6.84;76.36
31092;BME280;17747;51.070;10.930;2022-12-18T20:57:38;102286.88;;;-6.68;75.73
31092;BME280;17747;51.070;10.930;2022-12-18T20:59:10;102285.81;;;-6.83;75.50
31092;BME280;17747;51.070;10.930;2022-12-18T21:00:41;102292.63;;;-6.84;75.68
31092;BME280;17747;51.070;10.930;2022-12-18T21:02:13;102294.88;;;-7.00;76.10
31092;BME280;17747;51.070;10.930;2022-12-18T21:03:45;102291.72;;;-6.84;76.23
31092;BME280;17747;51.070;10.930;2022-12-18T21:05:16;102275.75;;;-6.92;76.29
31092;BME280;17747;51.070;10.930;2022-12-18T21:06:48;102281.09;;;-6.89;76.11
31092;BME280;17747;51.070;10.930;2022-12-18T21:08:22;102279.00;;;-6.94;76.29
31092;BME280;17747;51.070;10.930;2022-12-18T21:09:54;102285.34;;;-6.89;76.06
31092;BME280;17747;51.070;10.930;2022-12-18T21:11:27;102277.44;;;-6.92;75.86
31092;BME280;17747;51.070;10.930;2022-12-18T21:13:17;102279.56;;;-6.50;75.31
31092;BME280;17747;51.070;10.930;2022-12-18T21:14:48;102275.53;;;-6.83;75.43
31092;BME280;17747;51.070;10.930;2022-12-18T21:16:20;102274.28;;;-6.88;75.74
31092;BME280;17747;51.070;10.930;2022-12-18T21:17:51;102278.00;;;-6.85;75.77
31092;BME280;17747;51.070;10.930;2022-12-18T21:19:24;102271.59;;;-6.78;75.66
31092;BME280;17747;51.070;10.930;2022-12-18T21:20:56;102268.72;;;-6.83;75.40
31092;BME280;17747;51.070;10.930;2022-12-18T21:22:28;102264.81;;;-6.89;75.70
31092;BME280;17747;51.070;10.930;2022-12-18T21:23:59;102270.94;;;-6.87;75.77
31092;BME280;17747;51.070;10.930;2022-12-18T21:25:31;102272.97;;;-6.83;75.77
31092;BME280;17747;51.070;10.930;2022-12-18T21:27:04;102268.53;;;-6.61;75.38
31092;BME280;17747;51.070;10.930;2022-12-18T21:28:35;102267.69;;;-6.73;75.17
31092;BME280;17747;51.070;10.930;2022-12-18T21:30:07;102262.34;;;-6.88;75.71
31092;BME280;17747;51.070;10.930;2022-12-18T21:31:39;102261.25;;;-6.91;76.08
31092;BME280;17747;51.070;10.930;2022-12-18T21:33:11;102260.13;;;-6.95;76.07
31092;BME280;17747;51.070;10.930;2022-12-18T21:34:42;102260.75;;;-6.86;75.77
31092;BME280;17747;51.070;10.930;2022-12-18T21:36:13;102264.13;;;-6.98;75.70
31092;BME280;17747;51.070;10.930;2022-12-18T21:37:44;102251.84;;;-6.91;75.89
31092;BME280;17747;51.070;10.930;2022-12-18T21:39:16;102252.59;;;-6.80;75.67
31092;BME280;17747;51.070;10.930;2022-12-18T21:40:47;102245.81;;;-6.91;75.70
31092;BME280;17747;51.070;10.930;2022-12-18T21:42:20;102246.72;;;-6.91;76.17
31092;BME280;17747;51.070;10.930;2022-12-18T21:44:10;102242.13;;;-6.83;76.10
31092;BME280;17747;51.070;10.930;2022-12-18T21:45:40;102248.97;;;-6.59;75.46
31092;BME280;17747;51.070;10.930;2022-12-18T21:47:12;102239.97;;;-6.77;75.20
31092;BME280;17747;51.070;10.930;2022-12-18T21:48:43;102242.25;;;-6.93;75.69
31092;BME280;17747;51.070;10.930;2022-12-18T21:50:15;102234.81;;;-6.77;75.85
31092;BME280;17747;51.070;10.930;2022-12-18T21:51:47;102249.38;;;-6.89;75.66
31092;BME280;17747;51.070;10.930;2022-12-18T21:53:18;102242.06;;;-6.96;75.64
31092;BME280;17747;51.070;10.930;2022-12-18T21:54:50;102247.59;;;-6.90;75.65
31092;BME280;17747;51.070;10.930;2022-12-18T21:56:21;102238.53;;;-6.85;75.69
31092;BME280;17747;51.070;10.930;2022-12-18T21:57:54;102238.00;;;-6.93;75.82
31092;BME280;17747;51.070;10.930;2022-12-18T21:59:26;102247.63;;;-6.65;75.83
31092;BME280;17747;51.070;10.930;2022-12-18T22:00:58;102236.97;;;-6.83;75.52
31092;BME280;17747;51.070;10.930;2022-12-18T22:02:30;102225.69;;;-6.85;75.56
31092;BME280;17747;51.070;10.930;2022-12-18T22:04:01;102229.03;;;-6.86;75.84
31092;BME280;17747;51.070;10.930;2022-12-18T22:05:33;102228.19;;;-6.62;75.43
31092;BME280;17747;51.070;10.930;2022-12-18T22:07:04;102222.56;;;-6.81;75.34
31092;BME280;17747;51.070;10.930;2022-12-18T22:08:36;102219.41;;;-6.77;75.56
31092;BME280;17747;51.070;10.930;2022-12-18T22:10:08;102212.28;;;-6.81;75.41
31092;BME280;17747;51.070;10.930;2022-12-18T22:11:39;102215.50;;;-6.72;74.97
31092;BME280;17747;51.070;10.930;2022-12-18T22:13:12;102210.56;;;-6.69;74.93
31092;BME280;17747;51.070;10.930;2022-12-18T22:14:44;102214.00;;;-6.68;75.34
31092;BME280;17747;51.070;10.930;2022-12-18T22:16:15;102210.25;;;-6.73;75.25
31092;BME280;17747;51.070;10.930;2022-12-18T22:17:47;102205.56;;;-6.79;75.21
31092;BME280;17747;51.070;10.930;2022-12-18T22:19:18;102212.69;;;-6.75;74.79
31092;BME280;17747;51.070;10.930;2022-12-18T22:20:58;102209.50;;;-6.84;75.25
31092;BME280;17747;51.070;10.930;2022-12-18T22:22:30;102208.03;;;-6.81;75.33
31092;BME280;17747;51.070;10.930;2022-12-18T22:24:02;102208.19;;;-6.66;74.63
31092;BME280;17747;51.070;10.930;2022-12-18T22:25:34;102212.13;;;-6.71;75.02
31092;BME280;17747;51.070;10.930;2022-12-18T22:27:05;102203.44;;;-6.73;74.96
31092;BME280;17747;51.070;10.930;2022-12-18T22:28:38;102202.25;;;-6.65;74.73
31092;BME280;17747;51.070;10.930;2022-12-18T22:30:27;102199.84;;;-6.75;75.12
31092;BME280;17747;51.070;10.930;2022-12-18T22:31:57;102201.31;;;-6.78;74.84
31092;BME280;17747;51.070;10.930;2022-12-18T22:33:29;102194.59;;;-6.76;75.10
31092;BME280;17747;51.070;10.930;2022-12-18T22:35:01;102192.50;;;-6.82;74.90
31092;BME280;17747;51.070;10.930;2022-12-18T22:36:33;102179.84;;;-6.54;74.49
31092;BME280;17747;51.070;10.930;2022-12-18T22:38:04;102176.84;;;-6.73;74.71
31092;BME280;17747;51.070;10.930;2022-12-18T22:39:36;102173.09;;;-6.65;74.56
31092;BME280;17747;51.070;10.930;2022-12-18T22:41:07;102175.31;;;-6.83;75.09
31092;BME280;17747;51.070;10.930;2022-12-18T22:42:39;102168.75;;;-6.91;75.04
31092;BME280;17747;51.070;10.930;2022-12-18T22:44:12;102167.41;;;-6.98;75.07
31092;BME280;17747;51.070;10.930;2022-12-18T22:45:43;102163.81;;;-6.88;75.00
31092;BME280;17747;51.070;10.930;2022-12-18T22:47:16;102175.25;;;-6.96;75.16
31092;BME280;17747;51.070;10.930;2022-12-18T22:48:48;102172.31;;;-6.89;75.20
31092;BME280;17747;51.070;10.930;2022-12-18T22:50:19;102163.66;;;-6.78;74.98
31092;BME280;17747;51.070;10.930;2022-12-18T22:51:51;102158.47;;;-6.91;75.19
31092;BME280;17747;51.070;10.930;2022-12-18T22:53:23;102159.09;;;-6.82;75.30
31092;BME280;17747;51.070;10.930;2022-12-18T22:54:54;102154.75;;;-6.83;75.22
31092;BME280;17747;51.070;10.930;2022-12-18T22:56:26;102155.94;;;-6.78;74.79
31092;BME280;17747;51.070;10.930;2022-12-18T22:57:58;102165.97;;;-6.94;75.01
31092;BME280;17747;51.070;10.930;2022-12-18T22:59:31;102150.41;;;-6.84;75.09
31092;BME280;17747;51.070;10.930;2022-12-18T23:01:02;102159.06;;;-6.70;74.73
31092;BME280;17747;51.070;10.930;2022-12-18T23:02:34;102153.88;;;-6.84;74.86
31092;BME280;17747;51.070;10.930;2022-12-18T23:04:06;102146.03;;;-6.85;74.87
31092;BME280;17747;51.070;10.930;2022-12-18T23:05:37;102151.66;;;-6.91;74.97
31092;BME280;17747;51.070;10.930;2022-12-18T23:07:09;102153.31;;;-6.91;75.31
31092;BME280;17747;51.070;10.930;2022-12-18T23:08:40;102148.63;;;-6.97;75.25
31092;BME280;17747;51.070;10.930;2022-12-18T23:10:11;102151.16;;;-6.85;74.94
31092;BME280;17747;51.070;10.930;2022-12-18T23:11:43;102143.09;;;-6.78;74.93
31092;BME280;17747;51.070;10.930;2022-12-18T23:13:16;102137.91;;;-6.91;74.89
31092;BME280;17747;51.070;10.930;2022-12-18T23:14:49;102136.91;;;-6.93;74.89
31092;BME280;17747;51.070;10.930;2022-12-18T23:16:21;102134.94;;;-6.72;74.73
31092;BME280;17747;51.070;10.930;2022-12-18T23:17:52;102132.56;;;-6.94;75.37
31092;BME280;17747;51.070;10.930;2022-12-18T23:19:24;102135.53;;;-6.88;74.65
31092;BME280;17747;51.070;10.930;2022-12-18T23:20:55;102123.13;;;-6.82;75.10
31092;BME280;17747;51.070;10.930;2022-12-18T23:22:28;102120.19;;;-7.00;74.93
31092;BME280;17747;51.070;10.930;2022-12-18T23:23:59;102114.28;;;-6.86;74.88
31092;BME280;17747;51.070;10.930;2022-12-18T23:25:31;102110.22;;;-6.70;74.69
31092;BME280;17747;51.070;10.930;2022-12-18T23:27:01;102110.53;;;-6.91;74.66
31092;BME280;17747;51.070;10.930;2022-12-18T23:28:33;102103.63;;;-6.92;74.66
31092;BME280;17747;51.070;10.930;2022-12-18T23:30:08;102098.75;;;-7.00;75.05
31092;BME280;17747;51.070;10.930;2022-12-18T23:31:40;102108.31;;;-6.98;74.92
31092;BME280;17747;51.070;10.930;2022-12-18T23:33:12;102103.53;;;-6.93;74.86
31092;BME280;17747;51.070;10.930;2022-12-18T23:34:43;102094.59;;;-6.98;74.77
31092;BME280;17747;51.070;10.930;2022-12-18T23:36:15;102088.06;;;-7.06;75.26
31092;BME280;17747;51.070;10.930;2022-12-18T23:37:47;102085.84;;;-7.14;75.48
31092;BME280;17747;51.070;10.930;2022-12-18T23:39:18;102087.16;;;-7.07;75.38
31092;BME280;17747;51.070;10.930;2022-12-18T23:40:50;102081.34;;;-7.04;75.50
31092;BME280;17747;51.070;10.930;2022-12-18T23:42:21;102078.28;;;-7.24;75.77
31092;BME280;17747;51.070;10.930;2022-12-18T23:43:52;102073.06;;;-7.00;75.35
31092;BME280;17747;51.070;10.930;2022-12-18T23:45:25;102069.50;;;-7.02;75.60
31092;BME280;17747;51.070;10.930;2022-12-18T23:46:56;102061.16;;;-7.12;75.46
31092;BME280;17747;51.070;10.930;2022-12-18T23:48:28;102063.53;;;-7.15;75.80
31092;BME280;17747;51.070;10.930;2022-12-18T23:49:59;102056.00;;;-7.12;75.75
31092;BME280;17747;51.070;10.930;2022-12-18T23:51:31;102049.69;;;-7.17;75.93
31092;BME280;17747;51.070;10.930;2022-12-18T23:53:02;102044.56;;;-7.17;75.70
31092;BME280;17747;51.070;10.930;2022-12-18T23:54:34;102038.00;;;-7.25;75.79
31092;BME280;17747;51.070;10.930;2022-12-18T23:56:06;102036.22;;;-7.26;75.88
31092;BME280;17747;51.070;10.930;2022-12-18T23:57:37;102030.28;;;-7.25;76.18
31092;BME280;17747;51.070;10.930;2022-12-18T23:59:09;102027.56;;;-7.15;76.13
